EDT,Max TemperatureF,Mean TemperatureF,Min TemperatureF,Max Dew PointF,MeanDew PointF,Min DewpointF,Max Humidity, Mean Humidity, Min Humidity, Max Sea Level PressureIn, Mean Sea Level PressureIn, Min Sea Level PressureIn, Max VisibilityMiles, Mean VisibilityMiles, Min VisibilityMiles, Max Wind SpeedMPH, Mean Wind SpeedMPH, Max Gust SpeedMPH,PrecipitationIn, CloudCover, Events, WindDirDegrees
2013-3-1,53,42,32,31,28,25,82,57,34,29.92,29.88,29.83,10,10,10,14,7,18,0.00,3,,289
2013-3-2,50,40,30,31,27,25,85,62,38,29.93,29.88,29.82,10,10,8,12,5,,0.00,4,,307
2013-3-3,48,40,32,27,21,18,79,53,33,29.98,29.91,29.86,10,10,9,14,8,21,0.00,1,,305
2013-3-4,48,38,28,25,17,12,79,49,26,30.13,30.07,29.99,10,10,9,18,9,25,0.00,0,,297
2013-3-5,63,48,33,52,32,21,83,52,27,30.14,29.98,29.66,10,10,4,21,6,26,0.05,4,Rain,209
2013-3-6,59,50,42,53,33,23,84,59,36,29.96,29.70,29.53,10,10,5,34,19,44,0.02,6,Rain,289
2013-3-7,55,45,35,28,27,25,72,51,34,30.21,30.11,29.97,10,10,9,21,14,31,0.00,0,,322
2013-3-8,55,45,35,26,24,20,64,44,27,30.25,30.19,30.12,10,10,8,22,12,34,0.00,0,,329
2013-3-9,62,50,37,37,29,25,86,51,30,30.31,30.28,30.24,10,10,8,15,8,22,0.00,0,,344
2013-3-10,64,47,30,44,31,16,92,60,16,30.33,30.30,30.27,10,9,5,10,3,,0.00,0,,105
2013-3-11,70,57,44,54,47,41,90,70,44,30.27,30.15,30.01,10,9,5,14,7,23,0.00,5,,124
2013-3-12,70,63,57,61,58,50,94,85,65,29.99,29.89,29.79,10,6,0,15,9,26,0.90,7,Fog-Rain,190
2013-3-13,61,52,45,42,30,22,61,44,23,30.09,30.01,29.92,10,10,10,20,11,24,0.00,3,,321
2013-3-14,53,42,34,28,19,16,62,40,26,30.24,30.17,30.11,10,10,9,17,13,28,0.00,1,,300
2013-3-15,61,46,30,35,25,14,82,46,22,30.22,30.12,29.99,10,10,10,14,8,20,0.00,0,,252
2013-3-16,80,65,51,48,42,37,59,46,28,29.97,29.86,29.74,10,10,5,16,10,24,0.00,1,,229
2013-3-17,66,57,48,50,44,39,74,63,54,30.16,30.01,29.88,10,10,9,16,9,22,0.00,2,,88
2013-3-18,66,56,46,52,46,39,88,75,57,30.16,30.06,29.92,10,9,6,13,9,,0.00,6,,53
2013-3-19,70,61,51,56,47,30,94,72,25,30.00,29.87,29.77,10,8,1,17,7,22,0.34,5,Rain-Thunderstorm,281
2013-3-20,55,49,39,35,20,9,82,34,16,30.13,30.00,29.84,10,10,10,13,7,,0.00,5,,4
2013-3-21,53,42,32,33,21,10,89,50,20,29.98,29.79,29.71,10,10,9,20,6,29,0.00,1,,315
2013-3-22,53,40,27,29,15,9,60,40,19,30.12,30.05,30.00,10,10,9,9,6,17,0.00,0,,290
2013-3-23,57,46,37,36,30,26,82,58,37,30.07,30.02,29.94,10,10,9,7,3,,0.00,3,,252
2013-3-24,52,46,39,49,42,34,93,84,58,29.94,29.66,29.46,10,6,2,20,7,32,0.46,7,Rain,34
2013-3-25,52,45,39,40,36,25,92,74,41,29.84,29.62,29.53,10,7,1,24,8,33,0.00,7,,271
2013-3-26,48,40,33,30,26,24,70,54,38,30.10,29.96,29.85,10,10,10,13,8,18,0.00,4,,268
2013-3-27,55,44,32,28,23,20,75,47,25,30.23,30.16,30.11,10,10,10,17,10,25,0.00,0,,295
2013-3-28,57,42,30,31,23,20,69,46,25,30.28,30.22,30.16,10,10,9,17,8,29,0.00,1,,297
2013-3-29,61,45,30,35,27,22,85,49,23,30.35,30.29,30.22,10,10,9,13,7,21,0.00,0,,293
2013-3-30,63,50,39,42,38,33,79,61,39,30.26,30.21,30.15,10,10,7,13,4,,0.00,5,,229
2013-3-31,72,58,44,54,49,40,85,68,48,30.16,29.98,29.86,10,9,2,18,4,23,0.05,5,Rain,186